sensor_id;sensor_type;location;lat;lon;timestamp;temperature;humidity
40374;DHT22;26079;45.958;12.492;2022-07-19T00:00:52;24.60;68.20
40374;DHT22;26079;45.958;12.492;2022-07-19T00:03:18;24.60;68.30
40374;DHT22;26079;45.958;12.492;2022-07-19T00:05:44;24.60;68.00
40374;DHT22;26079;45.958;12.492;2022-07-19T00:08:10;24.60;68.10
40374;DHT22;26079;45.958;12.492;2022-07-19T00:10:36;24.50;68.20
40374;DHT22;26079;45.958;12.492;2022-07-19T00:13:01;24.50;69.00
40374;DHT22;26079;45.958;12.492;2022-07-19T00:15:27;24.50;68.10
40374;DHT22;26079;45.958;12.492;2022-07-19T00:17:53;24.50;67.40
40374;DHT22;26079;45.958;12.492;2022-07-19T00:20:21;24.60;67.30
40374;DHT22;26079;45.958;12.492;2022-07-19T00:22:47;24.60;67.30
40374;DHT22;26079;45.958;12.492;2022-07-19T00:25:13;24.60;67.30
40374;DHT22;26079;45.958;12.492;2022-07-19T00:27:39;24.60;66.90
40374;DHT22;26079;45.958;12.492;2022-07-19T00:30:07;24.60;66.70
40374;DHT22;26079;45.958;12.492;2022-07-19T00:32:33;24.60;66.70
40374;DHT22;26079;45.958;12.492;2022-07-19T00:34:58;24.50;66.80
40374;DHT22;26079;45.958;12.492;2022-07-19T00:37:24;24.50;66.70
40374;DHT22;26079;45.958;12.492;2022-07-19T00:39:50;24.50;67.10
40374;DHT22;26079;45.958;12.492;2022-07-19T00:42:15;24.40;66.90
40374;DHT22;26079;45.958;12.492;2022-07-19T00:44:42;24.40;67.50
40374;DHT22;26079;45.958;12.492;2022-07-19T00:47:08;24.30;67.30
40374;DHT22;26079;45.958;12.492;2022-07-19T00:49:34;24.30;68.00
40374;DHT22;26079;45.958;12.492;2022-07-19T00:52:03;24.20;67.90
40374;DHT22;26079;45.958;12.492;2022-07-19T00:54:30;24.20;67.80
40374;DHT22;26079;45.958;12.492;2022-07-19T00:56:59;24.20;67.80
40374;DHT22;26079;45.958;12.492;2022-07-19T00:59:26;24.10;68.10
40374;DHT22;26079;45.958;12.492;2022-07-19T01:01:53;24.00;68.10
40374;DHT22;26079;45.958;12.492;2022-07-19T01:04:20;23.90;68.60
40374;DHT22;26079;45.958;12.492;2022-07-19T01:06:47;23.80;69.40
40374;DHT22;26079;45.958;12.492;2022-07-19T01:09:12;23.70;69.50
40374;DHT22;26079;45.958;12.492;2022-07-19T01:11:39;23.70;68.80
40374;DHT22;26079;45.958;12.492;2022-07-19T01:14:05;23.70;68.60
40374;DHT22;26079;45.958;12.492;2022-07-19T01:16:31;23.70;68.90
40374;DHT22;26079;45.958;12.492;2022-07-19T01:18:57;23.70;69.00
40374;DHT22;26079;45.958;12.492;2022-07-19T01:21:24;23.60;69.60
40374;DHT22;26079;45.958;12.492;2022-07-19T01:23:50;23.60;69.40
40374;DHT22;26079;45.958;12.492;2022-07-19T01:26:16;23.60;69.60
40374;DHT22;26079;45.958;12.492;2022-07-19T01:28:43;23.60;70.50
40374;DHT22;26079;45.958;12.492;2022-07-19T01:31:09;23.50;70.50
40374;DHT22;26079;45.958;12.492;2022-07-19T01:33:40;23.50;71.00
40374;DHT22;26079;45.958;12.492;2022-07-19T01:36:06;23.50;71.00
40374;DHT22;26079;45.958;12.492;2022-07-19T01:38:32;23.50;71.40
40374;DHT22;26079;45.958;12.492;2022-07-19T01:40:58;23.40;71.60
40374;DHT22;26079;45.958;12.492;2022-07-19T01:43:24;23.40;71.30
40374;DHT22;26079;45.958;12.492;2022-07-19T01:45:50;23.40;71.50
40374;DHT22;26079;45.958;12.492;2022-07-19T01:48:16;23.40;71.50
40374;DHT22;26079;45.958;12.492;2022-07-19T01:50:41;23.40;71.20
40374;DHT22;26079;45.958;12.492;2022-07-19T01:53:07;23.30;71.50
40374;DHT22;26079;45.958;12.492;2022-07-19T01:55:33;23.30;71.50
40374;DHT22;26079;45.958;12.492;2022-07-19T01:57:58;23.30;71.50
40374;DHT22;26079;45.958;12.492;2022-07-19T02:00:24;23.20;72.00
40374;DHT22;26079;45.958;12.492;2022-07-19T02:02:50;23.10;72.30
40374;DHT22;26079;45.958;12.492;2022-07-19T02:05:15;23.10;72.60
40374;DHT22;26079;45.958;12.492;2022-07-19T02:07:41;23.10;72.00
40374;DHT22;26079;45.958;12.492;2022-07-19T02:10:08;23.00;72.80
40374;DHT22;26079;45.958;12.492;2022-07-19T02:12:34;22.90;72.40
40374;DHT22;26079;45.958;12.492;2022-07-19T02:15:00;22.90;72.50
40374;DHT22;26079;45.958;12.492;2022-07-19T02:17:26;22.80;73.60
40374;DHT22;26079;45.958;12.492;2022-07-19T02:19:51;22.80;73.90
40374;DHT22;26079;45.958;12.492;2022-07-19T02:22:17;22.80;74.20
40374;DHT22;26079;45.958;12.492;2022-07-19T02:24:42;22.70;73.80
40374;DHT22;26079;45.958;12.492;2022-07-19T02:27:10;22.70;74.60
40374;DHT22;26079;45.958;12.492;2022-07-19T02:29:35;22.60;75.00
40374;DHT22;26079;45.958;12.492;2022-07-19T02:32:01;22.50;75.40
40374;DHT22;26079;45.958;12.492;2022-07-19T02:34:27;22.50;75.50
40374;DHT22;26079;45.958;12.492;2022-07-19T02:36:52;22.40;75.90
40374;DHT22;26079;45.958;12.492;2022-07-19T02:39:18;22.40;76.00
40374;DHT22;26079;45.958;12.492;2022-07-19T02:41:44;22.40;75.60
40374;DHT22;26079;45.958;12.492;2022-07-19T02:44:10;22.40;75.40
40374;DHT22;26079;45.958;12.492;2022-07-19T02:46:36;22.30;75.90
40374;DHT22;26079;45.958;12.492;2022-07-19T02:49:01;22.20;76.00
40374;DHT22;26079;45.958;12.492;2022-07-19T02:51:27;22.20;76.30
40374;DHT22;26079;45.958;12.492;2022-07-19T02:53:53;22.20;76.40
40374;DHT22;26079;45.958;12.492;2022-07-19T02:56:18;22.20;76.80
40374;DHT22;26079;45.958;12.492;2022-07-19T02:58:44;22.10;75.90
40374;DHT22;26079;45.958;12.492;2022-07-19T03:01:10;22.00;75.40
40374;DHT22;26079;45.958;12.492;2022-07-19T03:03:35;22.00;75.70
40374;DHT22;26079;45.958;12.492;2022-07-19T03:06:12;22.00;75.90
40374;DHT22;26079;45.958;12.492;2022-07-19T03:08:38;21.90;76.20
40374;DHT22;26079;45.958;12.492;2022-07-19T03:11:04;21.90;75.60
40374;DHT22;26079;45.958;12.492;2022-07-19T03:13:29;21.90;76.30
40374;DHT22;26079;45.958;12.492;2022-07-19T03:15:55;21.80;76.30
40374;DHT22;26079;45.958;12.492;2022-07-19T03:18:21;21.80;76.60
40374;DHT22;26079;45.958;12.492;2022-07-19T03:20:46;21.80;76.90
40374;DHT22;26079;45.958;12.492;2022-07-19T03:23:12;21.80;77.20
40374;DHT22;26079;45.958;12.492;2022-07-19T03:25:38;21.80;77.00
40374;DHT22;26079;45.958;12.492;2022-07-19T03:28:04;21.80;77.40
40374;DHT22;26079;45.958;12.492;2022-07-19T03:30:29;21.70;78.20
40374;DHT22;26079;45.958;12.492;2022-07-19T03:32:57;21.60;78.80
40374;DHT22;26079;45.958;12.492;2022-07-19T03:35:23;21.50;78.80
40374;DHT22;26079;45.958;12.492;2022-07-19T03:37:48;21.50;78.90
40374;DHT22;26079;45.958;12.492;2022-07-19T03:40:14;21.50;78.90
40374;DHT22;26079;45.958;12.492;2022-07-19T03:42:40;21.50;79.10
40374;DHT22;26079;45.958;12.492;2022-07-19T03:45:06;21.50;79.80
40374;DHT22;26079;45.958;12.492;2022-07-19T03:47:32;21.50;79.90
40374;DHT22;26079;45.958;12.492;2022-07-19T03:49:57;21.50;80.40
40374;DHT22;26079;45.958;12.492;2022-07-19T03:52:24;21.40;80.50
40374;DHT22;26079;45.958;12.492;2022-07-19T03:54:49;21.20;81.00
40374;DHT22;26079;45.958;12.492;2022-07-19T03:57:15;21.20;81.80
40374;DHT22;26079;45.958;12.492;2022-07-19T03:59:41;21.30;81.60
40374;DHT22;26079;45.958;12.492;2022-07-19T04:02:07;21.30;82.20
40374;DHT22;26079;45.958;12.492;2022-07-19T04:04:33;21.40;81.00
40374;DHT22;26079;45.958;12.492;2022-07-19T04:06:59;21.50;81.40
40374;DHT22;26079;45.958;12.492;2022-07-19T04:09:25;21.50;81.30
40374;DHT22;26079;45.958;12.492;2022-07-19T04:11:50;21.40;81.10
40374;DHT22;26079;45.958;12.492;2022-07-19T04:14:16;21.30;81.10
40374;DHT22;26079;45.958;12.492;2022-07-19T04:16:42;21.40;80.90
40374;DHT22;26079;45.958;12.492;2022-07-19T04:19:07;21.40;81.20
40374;DHT22;26079;45.958;12.492;2022-07-19T04:21:33;21.50;80.90
40374;DHT22;26079;45.958;12.492;2022-07-19T04:23:59;21.60;80.00
40374;DHT22;26079;45.958;12.492;2022-07-19T04:26:25;21.50;79.10
40374;DHT22;26079;45.958;12.492;2022-07-19T04:28:50;21.40;80.10
40374;DHT22;26079;45.958;12.492;2022-07-19T04:31:16;21.40;80.90
40374;DHT22;26079;45.958;12.492;2022-07-19T04:33:42;21.40;81.30
40374;DHT22;26079;45.958;12.492;2022-07-19T04:36:08;21.40;80.60
40374;DHT22;26079;45.958;12.492;2022-07-19T04:38:33;21.50;80.50
40374;DHT22;26079;45.958;12.492;2022-07-19T04:40:59;21.60;79.90
40374;DHT22;26079;45.958;12.492;2022-07-19T04:43:25;21.70;79.00
40374;DHT22;26079;45.958;12.492;2022-07-19T04:45:51;21.90;79.20
40374;DHT22;26079;45.958;12.492;2022-07-19T04:48:16;22.10;77.20
40374;DHT22;26079;45.958;12.492;2022-07-19T04:50:42;22.30;76.40
40374;DHT22;26079;45.958;12.492;2022-07-19T04:53:08;22.50;76.40
40374;DHT22;26079;45.958;12.492;2022-07-19T04:55:36;22.60;75.50
40374;DHT22;26079;45.958;12.492;2022-07-19T04:58:02;22.80;75.10
40374;DHT22;26079;45.958;12.492;2022-07-19T05:00:28;22.90;75.20
40374;DHT22;26079;45.958;12.492;2022-07-19T05:02:55;23.10;74.80
40374;DHT22;26079;45.958;12.492;2022-07-19T05:05:21;23.30;74.80
40374;DHT22;26079;45.958;12.492;2022-07-19T05:07:46;23.60;74.40
40374;DHT22;26079;45.958;12.492;2022-07-19T05:10:12;23.80;74.00
40374;DHT22;26079;45.958;12.492;2022-07-19T05:12:39;24.00;73.90
40374;DHT22;26079;45.958;12.492;2022-07-19T05:15:06;24.10;73.40
40374;DHT22;26079;45.958;12.492;2022-07-19T05:17:32;24.20;73.90
40374;DHT22;26079;45.958;12.492;2022-07-19T05:19:58;24.30;73.80
40374;DHT22;26079;45.958;12.492;2022-07-19T05:22:23;24.50;73.00
40374;DHT22;26079;45.958;12.492;2022-07-19T05:24:51;24.60;70.90
40374;DHT22;26079;45.958;12.492;2022-07-19T05:27:18;25.10;71.70
40374;DHT22;26079;45.958;12.492;2022-07-19T05:29:43;25.80;70.80
40374;DHT22;26079;45.958;12.492;2022-07-19T05:32:09;26.90;69.90
40374;DHT22;26079;45.958;12.492;2022-07-19T05:34:35;28.00;68.20
40374;DHT22;26079;45.958;12.492;2022-07-19T05:37:01;29.10;64.70
40374;DHT22;26079;45.958;12.492;2022-07-19T05:39:26;29.90;62.70
40374;DHT22;26079;45.958;12.492;2022-07-19T05:41:52;30.10;60.80
40374;DHT22;26079;45.958;12.492;2022-07-19T05:44:18;29.80;59.20
40374;DHT22;26079;45.958;12.492;2022-07-19T05:46:43;29.80;59.30
40374;DHT22;26079;45.958;12.492;2022-07-19T05:49:10;30.00;59.60
40374;DHT22;26079;45.958;12.492;2022-07-19T05:51:37;30.60;58.20
40374;DHT22;26079;45.958;12.492;2022-07-19T05:54:03;30.40;58.00
40374;DHT22;26079;45.958;12.492;2022-07-19T05:56:29;30.60;60.80
40374;DHT22;26079;45.958;12.492;2022-07-19T05:58:55;31.50;59.50
40374;DHT22;26079;45.958;12.492;2022-07-19T06:01:21;32.30;56.60
40374;DHT22;26079;45.958;12.492;2022-07-19T06:03:58;32.70;54.60
40374;DHT22;26079;45.958;12.492;2022-07-19T06:06:26;32.90;54.40
40374;DHT22;26079;45.958;12.492;2022-07-19T06:08:52;33.20;53.20
40374;DHT22;26079;45.958;12.492;2022-07-19T06:11:18;32.80;53.70
40374;DHT22;26079;45.958;12.492;2022-07-19T06:13:45;32.90;55.30
40374;DHT22;26079;45.958;12.492;2022-07-19T06:16:11;33.30;55.80
40374;DHT22;26079;45.958;12.492;2022-07-19T06:18:37;33.80;53.00
40374;DHT22;26079;45.958;12.492;2022-07-19T06:21:08;34.10;54.50
40374;DHT22;26079;45.958;12.492;2022-07-19T06:23:35;34.70;52.80
40374;DHT22;26079;45.958;12.492;2022-07-19T06:26:01;34.90;52.10
40374;DHT22;26079;45.958;12.492;2022-07-19T06:28:27;35.00;53.20
40374;DHT22;26079;45.958;12.492;2022-07-19T06:30:53;35.40;50.20
40374;DHT22;26079;45.958;12.492;2022-07-19T06:33:19;35.80;51.10
40374;DHT22;26079;45.958;12.492;2022-07-19T06:35:45;36.00;48.50
40374;DHT22;26079;45.958;12.492;2022-07-19T06:38:11;35.60;49.20
40374;DHT22;26079;45.958;12.492;2022-07-19T06:40:36;34.80;51.30
40374;DHT22;26079;45.958;12.492;2022-07-19T06:43:02;34.80;52.80
40374;DHT22;26079;45.958;12.492;2022-07-19T06:45:28;34.90;50.70
40374;DHT22;26079;45.958;12.492;2022-07-19T06:47:54;35.10;49.40
40374;DHT22;26079;45.958;12.492;2022-07-19T06:50:20;35.30;45.40
40374;DHT22;26079;45.958;12.492;2022-07-19T06:52:46;35.10;46.00
40374;DHT22;26079;45.958;12.492;2022-07-19T06:55:12;35.00;46.40
40374;DHT22;26079;45.958;12.492;2022-07-19T06:57:38;35.00;47.50
40374;DHT22;26079;45.958;12.492;2022-07-19T07:00:05;35.30;47.00
40374;DHT22;26079;45.958;12.492;2022-07-19T07:02:33;35.60;46.60
40374;DHT22;26079;45.958;12.492;2022-07-19T07:04:58;35.60;46.50
40374;DHT22;26079;45.958;12.492;2022-07-19T07:07:24;35.80;46.00
40374;DHT22;26079;45.958;12.492;2022-07-19T07:09:50;35.60;45.60
40374;DHT22;26079;45.958;12.492;2022-07-19T07:12:15;34.80;46.70
40374;DHT22;26079;45.958;12.492;2022-07-19T07:14:41;34.20;47.10
40374;DHT22;26079;45.958;12.492;2022-07-19T07:17:07;33.60;47.90
40374;DHT22;26079;45.958;12.492;2022-07-19T07:19:34;32.80;48.50
40374;DHT22;26079;45.958;12.492;2022-07-19T07:22:00;31.80;49.70
40374;DHT22;26079;45.958;12.492;2022-07-19T07:24:27;30.80;52.20
40374;DHT22;26079;45.958;12.492;2022-07-19T07:26:53;30.40;52.50
40374;DHT22;26079;45.958;12.492;2022-07-19T07:29:19;30.10;52.80
40374;DHT22;26079;45.958;12.492;2022-07-19T07:31:45;29.80;54.40
40374;DHT22;26079;45.958;12.492;2022-07-19T07:34:10;30.00;53.20
40374;DHT22;26079;45.958;12.492;2022-07-19T07:36:36;30.10;53.00
40374;DHT22;26079;45.958;12.492;2022-07-19T07:39:02;29.90;53.80
40374;DHT22;26079;45.958;12.492;2022-07-19T07:41:28;30.00;54.60
40374;DHT22;26079;45.958;12.492;2022-07-19T07:43:53;30.00;53.90
40374;DHT22;26079;45.958;12.492;2022-07-19T07:46:19;30.10;53.40
40374;DHT22;26079;45.958;12.492;2022-07-19T07:48:45;29.90;54.60
40374;DHT22;26079;45.958;12.492;2022-07-19T07:51:11;29.90;53.40
40374;DHT22;26079;45.958;12.492;2022-07-19T07:53:36;29.70;53.80
40374;DHT22;26079;45.958;12.492;2022-07-19T07:56:02;29.70;54.10
40374;DHT22;26079;45.958;12.492;2022-07-19T07:58:28;29.80;53.90
40374;DHT22;26079;45.958;12.492;2022-07-19T08:00:54;29.70;54.50
40374;DHT22;26079;45.958;12.492;2022-07-19T08:03:20;29.80;54.40
40374;DHT22;26079;45.958;12.492;2022-07-19T08:05:45;30.00;54.60
40374;DHT22;26079;45.958;12.492;2022-07-19T08:08:14;30.10;53.70
40374;DHT22;26079;45.958;12.492;2022-07-19T08:10:40;30.20;54.30
40374;DHT22;26079;45.958;12.492;2022-07-19T08:13:06;30.30;53.90
40374;DHT22;26079;45.958;12.492;2022-07-19T08:15:31;30.30;53.30
40374;DHT22;26079;45.958;12.492;2022-07-19T08:17:57;30.30;53.60
40374;DHT22;26079;45.958;12.492;2022-07-19T08:20:23;30.40;52.70
40374;DHT22;26079;45.958;12.492;2022-07-19T08:22:48;30.60;52.20
40374;DHT22;26079;45.958;12.492;2022-07-19T08:25:14;30.70;52.70
40374;DHT22;26079;45.958;12.492;2022-07-19T08:27:42;30.80;52.20
40374;DHT22;26079;45.958;12.492;2022-07-19T08:30:09;30.80;50.70
40374;DHT22;26079;45.958;12.492;2022-07-19T08:32:35;30.80;52.20
40374;DHT22;26079;45.958;12.492;2022-07-19T08:35:01;30.70;51.90
40374;DHT22;26079;45.958;12.492;2022-07-19T08:37:26;30.80;51.40
40374;DHT22;26079;45.958;12.492;2022-07-19T08:39:53;30.90;51.10
40374;DHT22;26079;45.958;12.492;2022-07-19T08:42:22;31.00;51.80
40374;DHT22;26079;45.958;12.492;2022-07-19T08:44:51;31.00;52.30
40374;DHT22;26079;45.958;12.492;2022-07-19T08:47:21;30.90;51.80
40374;DHT22;26079;45.958;12.492;2022-07-19T08:49:48;30.90;52.00
40374;DHT22;26079;45.958;12.492;2022-07-19T08:52:14;30.80;51.90
40374;DHT22;26079;45.958;12.492;2022-07-19T08:54:41;30.80;53.30
40374;DHT22;26079;45.958;12.492;2022-07-19T08:57:07;30.90;51.80
40374;DHT22;26079;45.958;12.492;2022-07-19T08:59:51;31.10;51.10
40374;DHT22;26079;45.958;12.492;2022-07-19T09:02:17;31.10;51.20
40374;DHT22;26079;45.958;12.492;2022-07-19T09:04:43;31.10;51.80
40374;DHT22;26079;45.958;12.492;2022-07-19T09:07:08;31.10;51.60
40374;DHT22;26079;45.958;12.492;2022-07-19T09:09:35;31.30;51.30
40374;DHT22;26079;45.958;12.492;2022-07-19T09:12:04;31.50;52.00
40374;DHT22;26079;45.958;12.492;2022-07-19T09:14:36;31.70;50.90
40374;DHT22;26079;45.958;12.492;2022-07-19T09:17:04;31.80;51.10
40374;DHT22;26079;45.958;12.492;2022-07-19T09:19:37;31.80;51.10
40374;DHT22;26079;45.958;12.492;2022-07-19T09:22:14;31.60;51.10
40374;DHT22;26079;45.958;12.492;2022-07-19T09:27:14;31.80;51.40
40374;DHT22;26079;45.958;12.492;2022-07-19T09:29:43;31.90;51.00
40374;DHT22;26079;45.958;12.492;2022-07-19T09:34:41;32.00;49.30
40374;DHT22;26079;45.958;12.492;2022-07-19T09:39:38;32.10;50.20
40374;DHT22;26079;45.958;12.492;2022-07-19T09:42:21;32.20;47.90
40374;DHT22;26079;45.958;12.492;2022-07-19T09:45:00;32.20;47.40
40374;DHT22;26079;45.958;12.492;2022-07-19T09:47:41;32.20;48.60
40374;DHT22;26079;45.958;12.492;2022-07-19T09:50:13;32.00;49.10
40374;DHT22;26079;45.958;12.492;2022-07-19T09:52:40;32.10;49.10
40374;DHT22;26079;45.958;12.492;2022-07-19T09:55:08;32.00;48.20
40374;DHT22;26079;45.958;12.492;2022-07-19T09:57:42;31.80;48.50
40374;DHT22;26079;45.958;12.492;2022-07-19T10:00:10;31.70;48.90
40374;DHT22;26079;45.958;12.492;2022-07-19T10:02:43;31.60;50.20
40374;DHT22;26079;45.958;12.492;2022-07-19T10:05:09;31.70;50.00
40374;DHT22;26079;45.958;12.492;2022-07-19T10:07:36;31.80;50.70
40374;DHT22;26079;45.958;12.492;2022-07-19T10:10:13;31.90;49.70
40374;DHT22;26079;45.958;12.492;2022-07-19T10:12:42;31.80;50.70
40374;DHT22;26079;45.958;12.492;2022-07-19T10:15:10;31.80;50.80
40374;DHT22;26079;45.958;12.492;2022-07-19T10:17:41;32.20;49.60
40374;DHT22;26079;45.958;12.492;2022-07-19T10:20:11;32.50;48.50
40374;DHT22;26079;45.958;12.492;2022-07-19T10:22:40;32.80;48.10
40374;DHT22;26079;45.958;12.492;2022-07-19T10:25:15;32.60;47.10
40374;DHT22;26079;45.958;12.492;2022-07-19T10:27:53;32.60;47.90
40374;DHT22;26079;45.958;12.492;2022-07-19T10:30:21;32.60;47.20
40374;DHT22;26079;45.958;12.492;2022-07-19T10:32:50;32.50;47.30
40374;DHT22;26079;45.958;12.492;2022-07-19T10:43:13;32.30;48.50
40374;DHT22;26079;45.958;12.492;2022-07-19T10:45:41;32.50;47.80
40374;DHT22;26079;45.958;12.492;2022-07-19T10:48:13;32.30;48.50
40374;DHT22;26079;45.958;12.492;2022-07-19T10:50:43;32.20;48.40
40374;DHT22;26079;45.958;12.492;2022-07-19T10:53:09;32.30;49.50
40374;DHT22;26079;45.958;12.492;2022-07-19T10:55:34;32.30;48.50
40374;DHT22;26079;45.958;12.492;2022-07-19T10:58:11;32.30;49.10
40374;DHT22;26079;45.958;12.492;2022-07-19T11:00:46;32.60;48.50
40374;DHT22;26079;45.958;12.492;2022-07-19T11:05:57;32.50;48.70
40374;DHT22;26079;45.958;12.492;2022-07-19T11:08:34;32.60;48.50
40374;DHT22;26079;45.958;12.492;2022-07-19T11:11:10;32.60;48.90
40374;DHT22;26079;45.958;12.492;2022-07-19T11:13:38;32.60;49.10
40374;DHT22;26079;45.958;12.492;2022-07-19T11:16:05;33.00;47.90
40374;DHT22;26079;45.958;12.492;2022-07-19T11:18:32;33.30;47.70
40374;DHT22;26079;45.958;12.492;2022-07-19T11:20:59;33.40;47.10
40374;DHT22;26079;45.958;12.492;2022-07-19T11:23:32;33.20;46.70
40374;DHT22;26079;45.958;12.492;2022-07-19T11:26:06;33.10;48.40
40374;DHT22;26079;45.958;12.492;2022-07-19T11:28:32;33.30;48.00
40374;DHT22;26079;45.958;12.492;2022-07-19T11:30:58;33.20;47.20
40374;DHT22;26079;45.958;12.492;2022-07-19T11:33:24;33.00;47.10
40374;DHT22;26079;45.958;12.492;2022-07-19T11:38:20;33.00;48.90
40374;DHT22;26079;45.958;12.492;2022-07-19T11:40:46;33.10;50.40
40374;DHT22;26079;45.958;12.492;2022-07-19T11:43:11;33.40;47.60
40374;DHT22;26079;45.958;12.492;2022-07-19T11:45:48;33.40;46.60
40374;DHT22;26079;45.958;12.492;2022-07-19T11:48:24;33.20;48.40
40374;DHT22;26079;45.958;12.492;2022-07-19T11:51:07;33.40;47.20
40374;DHT22;26079;45.958;12.492;2022-07-19T11:53:34;33.60;47.70
40374;DHT22;26079;45.958;12.492;2022-07-19T11:56:01;33.50;47.70
40374;DHT22;26079;45.958;12.492;2022-07-19T11:58:29;33.50;47.20
40374;DHT22;26079;45.958;12.492;2022-07-19T12:01:05;33.50;47.30
40374;DHT22;26079;45.958;12.492;2022-07-19T12:03:31;33.50;46.90
40374;DHT22;26079;45.958;12.492;2022-07-19T12:06:06;33.60;47.60
40374;DHT22;26079;45.958;12.492;2022-07-19T12:08:41;33.80;46.70
40374;DHT22;26079;45.958;12.492;2022-07-19T12:11:18;33.70;47.20
40374;DHT22;26079;45.958;12.492;2022-07-19T12:13:44;33.60;47.40
40374;DHT22;26079;45.958;12.492;2022-07-19T12:16:11;33.50;47.50
40374;DHT22;26079;45.958;12.492;2022-07-19T12:18:51;33.40;47.70
40374;DHT22;26079;45.958;12.492;2022-07-19T12:21:22;33.40;48.00
40374;DHT22;26079;45.958;12.492;2022-07-19T12:26:35;33.50;48.20
40374;DHT22;26079;45.958;12.492;2022-07-19T12:29:01;33.70;47.80
40374;DHT22;26079;45.958;12.492;2022-07-19T12:31:27;33.80;47.80
40374;DHT22;26079;45.958;12.492;2022-07-19T12:34:01;33.80;48.20
40374;DHT22;26079;45.958;12.492;2022-07-19T12:36:37;33.90;47.40
40374;DHT22;26079;45.958;12.492;2022-07-19T12:39:03;34.00;48.40
40374;DHT22;26079;45.958;12.492;2022-07-19T12:41:29;34.00;47.90
40374;DHT22;26079;45.958;12.492;2022-07-19T12:43:55;34.00;47.80
40374;DHT22;26079;45.958;12.492;2022-07-19T12:46:20;33.90;48.10
40374;DHT22;26079;45.958;12.492;2022-07-19T12:48:46;33.60;48.60
40374;DHT22;26079;45.958;12.492;2022-07-19T12:51:12;33.60;48.50
40374;DHT22;26079;45.958;12.492;2022-07-19T12:53:38;33.50;47.50
40374;DHT22;26079;45.958;12.492;2022-07-19T12:56:04;33.60;48.40
40374;DHT22;26079;45.958;12.492;2022-07-19T12:58:30;33.70;48.20
40374;DHT22;26079;45.958;12.492;2022-07-19T13:01:14;33.80;47.80
40374;DHT22;26079;45.958;12.492;2022-07-19T13:03:40;33.80;48.20
40374;DHT22;26079;45.958;12.492;2022-07-19T13:06:06;34.00;46.80
40374;DHT22;26079;45.958;12.492;2022-07-19T13:08:31;34.00;47.20
40374;DHT22;26079;45.958;12.492;2022-07-19T13:10:58;34.20;46.90
40374;DHT22;26079;45.958;12.492;2022-07-19T13:13:24;34.20;46.40
40374;DHT22;26079;45.958;12.492;2022-07-19T13:15:51;34.00;47.10
40374;DHT22;26079;45.958;12.492;2022-07-19T13:18:17;34.20;47.30
40374;DHT22;26079;45.958;12.492;2022-07-19T13:20:43;34.10;47.10
40374;DHT22;26079;45.958;12.492;2022-07-19T13:23:09;34.00;47.50
40374;DHT22;26079;45.958;12.492;2022-07-19T13:25:35;34.10;46.70
40374;DHT22;26079;45.958;12.492;2022-07-19T13:28:01;34.10;47.30
40374;DHT22;26079;45.958;12.492;2022-07-19T13:30:27;34.10;47.10
40374;DHT22;26079;45.958;12.492;2022-07-19T13:32:54;34.20;47.40
40374;DHT22;26079;45.958;12.492;2022-07-19T13:35:20;34.50;46.60
40374;DHT22;26079;45.958;12.492;2022-07-19T13:37:46;34.60;45.70
40374;DHT22;26079;45.958;12.492;2022-07-19T13:40:12;34.60;45.30
40374;DHT22;26079;45.958;12.492;2022-07-19T13:42:39;34.60;45.50
40374;DHT22;26079;45.958;12.492;2022-07-19T13:45:05;34.40;46.70
40374;DHT22;26079;45.958;12.492;2022-07-19T13:47:31;34.60;46.00
40374;DHT22;26079;45.958;12.492;2022-07-19T13:49:58;34.70;45.30
40374;DHT22;26079;45.958;12.492;2022-07-19T13:52:24;34.60;45.90
40374;DHT22;26079;45.958;12.492;2022-07-19T13:54:50;34.40;46.50
40374;DHT22;26079;45.958;12.492;2022-07-19T13:57:16;34.50;47.60
40374;DHT22;26079;45.958;12.492;2022-07-19T13:59:42;34.40;46.00
40374;DHT22;26079;45.958;12.492;2022-07-19T14:02:08;34.40;46.40
40374;DHT22;26079;45.958;12.492;2022-07-19T14:04:35;34.40;45.90
40374;DHT22;26079;45.958;12.492;2022-07-19T14:07:01;34.40;45.80
40374;DHT22;26079;45.958;12.492;2022-07-19T14:09:26;34.50;46.30
40374;DHT22;26079;45.958;12.492;2022-07-19T14:11:52;34.40;45.40
40374;DHT22;26079;45.958;12.492;2022-07-19T14:14:18;34.40;46.40
40374;DHT22;26079;45.958;12.492;2022-07-19T14:16:44;34.60;45.90
40374;DHT22;26079;45.958;12.492;2022-07-19T14:19:11;34.70;45.90
40374;DHT22;26079;45.958;12.492;2022-07-19T14:21:37;34.80;45.80
40374;DHT22;26079;45.958;12.492;2022-07-19T14:24:03;34.80;45.10
40374;DHT22;26079;45.958;12.492;2022-07-19T14:26:29;34.60;45.50
40374;DHT22;26079;45.958;12.492;2022-07-19T14:28:55;34.50;46.10
40374;DHT22;26079;45.958;12.492;2022-07-19T14:31:21;34.50;45.60
40374;DHT22;26079;45.958;12.492;2022-07-19T14:33:47;34.60;45.40
40374;DHT22;26079;45.958;12.492;2022-07-19T14:36:13;34.70;45.00
40374;DHT22;26079;45.958;12.492;2022-07-19T14:38:38;34.60;46.00
40374;DHT22;26079;45.958;12.492;2022-07-19T14:41:05;34.50;47.30
40374;DHT22;26079;45.958;12.492;2022-07-19T14:43:31;34.20;46.40
40374;DHT22;26079;45.958;12.492;2022-07-19T14:45:56;34.20;45.90
40374;DHT22;26079;45.958;12.492;2022-07-19T14:48:22;34.20;46.30
40374;DHT22;26079;45.958;12.492;2022-07-19T14:50:48;34.30;46.30
40374;DHT22;26079;45.958;12.492;2022-07-19T14:53:13;34.10;46.80
40374;DHT22;26079;45.958;12.492;2022-07-19T14:55:39;34.20;46.80
40374;DHT22;26079;45.958;12.492;2022-07-19T14:58:05;34.30;46.20
40374;DHT22;26079;45.958;12.492;2022-07-19T15:00:30;34.40;45.20
40374;DHT22;26079;45.958;12.492;2022-07-19T15:02:57;34.50;45.60
40374;DHT22;26079;45.958;12.492;2022-07-19T15:05:22;34.40;45.60
40374;DHT22;26079;45.958;12.492;2022-07-19T15:07:48;34.40;46.00
40374;DHT22;26079;45.958;12.492;2022-07-19T15:10:14;34.40;45.90
40374;DHT22;26079;45.958;12.492;2022-07-19T15:12:39;34.50;46.10
40374;DHT22;26079;45.958;12.492;2022-07-19T15:15:05;34.40;45.50
40374;DHT22;26079;45.958;12.492;2022-07-19T15:17:32;34.40;45.90
40374;DHT22;26079;45.958;12.492;2022-07-19T15:19:58;34.40;46.50
40374;DHT22;26079;45.958;12.492;2022-07-19T15:22:24;34.60;45.30
40374;DHT22;26079;45.958;12.492;2022-07-19T15:24:50;34.70;45.30
40374;DHT22;26079;45.958;12.492;2022-07-19T15:27:16;34.90;45.30
40374;DHT22;26079;45.958;12.492;2022-07-19T15:29:41;35.20;44.70
40374;DHT22;26079;45.958;12.492;2022-07-19T15:32:11;35.30;44.80
40374;DHT22;26079;45.958;12.492;2022-07-19T15:34:37;35.20;44.20
40374;DHT22;26079;45.958;12.492;2022-07-19T15:37:03;35.20;44.10